sensor_id;sensor_type;location;lat;lon;timestamp;P1;durP1;ratioP1;P2;durP2;ratioP2
48767;SDS011;34933;40.968;14.538;2022-09-03T00:00:51;3.13;;;2.75;;
48767;SDS011;34933;40.968;14.538;2022-09-03T00:03:50;3.42;;;2.70;;
48767;SDS011;34933;40.968;14.538;2022-09-03T00:06:47;2.63;;;2.40;;
48767;SDS011;34933;40.968;14.538;2022-09-03T00:09:35;4.70;;;2.65;;
48767;SDS011;34933;40.968;14.538;2022-09-03T00:12:32;2.47;;;2.10;;
48767;SDS011;34933;40.968;14.538;2022-09-03T00:15:21;5.47;;;2.55;;
48767;SDS011;34933;40.968;14.538;2022-09-03T00:18:18;4.15;;;2.60;;
48767;SDS011;34933;40.968;14.538;2022-09-03T00:21:16;3.15;;;2.10;;
48767;SDS011;34933;40.968;14.538;2022-09-03T00:24:07;6.20;;;2.63;;
48767;SDS011;34933;40.968;14.538;2022-09-03T00:26:56;6.35;;;2.28;;
48767;SDS011;34933;40.968;14.538;2022-09-03T00:33:02;3.55;;;2.60;;
48767;SDS011;34933;40.968;14.538;2022-09-03T00:38:56;2.97;;;2.25;;
48767;SDS011;34933;40.968;14.538;2022-09-03T00:48:20;3.20;;;2.42;;
48767;SDS011;34933;40.968;14.538;2022-09-03T00:54:40;3.92;;;2.63;;
48767;SDS011;34933;40.968;14.538;2022-09-03T01:00:23;5.65;;;3.15;;
48767;SDS011;34933;40.968;14.538;2022-09-03T01:03:10;3.28;;;2.65;;
48767;SDS011;34933;40.968;14.538;2022-09-03T01:09:02;3.05;;;2.80;;
48767;SDS011;34933;40.968;14.538;2022-09-03T01:12:11;4.57;;;2.83;;
48767;SDS011;34933;40.968;14.538;2022-09-03T01:15:18;2.83;;;2.63;;
48767;SDS011;34933;40.968;14.538;2022-09-03T01:18:31;5.38;;;2.80;;
48767;SDS011;34933;40.968;14.538;2022-09-03T01:21:39;3.40;;;2.50;;
48767;SDS011;34933;40.968;14.538;2022-09-03T01:31:21;4.07;;;2.80;;
48767;SDS011;34933;40.968;14.538;2022-09-03T01:37:14;5.50;;;2.40;;
48767;SDS011;34933;40.968;14.538;2022-09-03T01:43:03;4.70;;;2.63;;
48767;SDS011;34933;40.968;14.538;2022-09-03T01:45:54;7.10;;;2.58;;
48767;SDS011;34933;40.968;14.538;2022-09-03T01:51:36;6.25;;;2.88;;
48767;SDS011;34933;40.968;14.538;2022-09-03T01:57:21;3.67;;;2.33;;
48767;SDS011;34933;40.968;14.538;2022-09-03T02:00:18;5.28;;;2.40;;
48767;SDS011;34933;40.968;14.538;2022-09-03T02:03:03;3.65;;;2.78;;
48767;SDS011;34933;40.968;14.538;2022-09-03T02:05:50;5.60;;;2.60;;
48767;SDS011;34933;40.968;14.538;2022-09-03T02:08:36;5.53;;;3.22;;
48767;SDS011;34933;40.968;14.538;2022-09-03T02:11:21;6.72;;;3.00;;
48767;SDS011;34933;40.968;14.538;2022-09-03T02:14:05;4.10;;;2.65;;
48767;SDS011;34933;40.968;14.538;2022-09-03T02:16:50;6.10;;;2.55;;
48767;SDS011;34933;40.968;14.538;2022-09-03T02:19:35;3.65;;;2.72;;
48767;SDS011;34933;40.968;14.538;2022-09-03T02:22:22;3.28;;;2.50;;
48767;SDS011;34933;40.968;14.538;2022-09-03T02:25:06;3.20;;;2.90;;
48767;SDS011;34933;40.968;14.538;2022-09-03T02:27:53;3.35;;;2.70;;
48767;SDS011;34933;40.968;14.538;2022-09-03T02:30:38;3.20;;;2.63;;
48767;SDS011;34933;40.968;14.538;2022-09-03T02:33:23;3.75;;;2.72;;
48767;SDS011;34933;40.968;14.538;2022-09-03T02:36:09;2.53;;;2.30;;
48767;SDS011;34933;40.968;14.538;2022-09-03T02:38:56;4.63;;;2.72;;
48767;SDS011;34933;40.968;14.538;2022-09-03T02:41:40;2.53;;;2.33;;
48767;SDS011;34933;40.968;14.538;2022-09-03T02:44:29;4.55;;;2.55;;
48767;SDS011;34933;40.968;14.538;2022-09-03T02:47:16;6.80;;;2.80;;
48767;SDS011;34933;40.968;14.538;2022-09-03T02:50:03;2.55;;;2.35;;
48767;SDS011;34933;40.968;14.538;2022-09-03T02:52:49;7.53;;;2.78;;
48767;SDS011;34933;40.968;14.538;2022-09-03T02:55:34;7.38;;;2.88;;
48767;SDS011;34933;40.968;14.538;2022-09-03T02:58:18;3.42;;;2.63;;
48767;SDS011;34933;40.968;14.538;2022-09-03T03:01:03;5.70;;;3.53;;
48767;SDS011;34933;40.968;14.538;2022-09-03T03:03:48;3.55;;;2.42;;
48767;SDS011;34933;40.968;14.538;2022-09-03T03:06:33;4.72;;;2.30;;
48767;SDS011;34933;40.968;14.538;2022-09-03T03:09:18;4.93;;;3.22;;
48767;SDS011;34933;40.968;14.538;2022-09-03T03:12:03;3.88;;;3.20;;
48767;SDS011;34933;40.968;14.538;2022-09-03T03:14:48;3.10;;;2.38;;
48767;SDS011;34933;40.968;14.538;2022-09-03T03:17:32;3.63;;;2.47;;
48767;SDS011;34933;40.968;14.538;2022-09-03T03:20:17;4.03;;;2.70;;
48767;SDS011;34933;40.968;14.538;2022-09-03T03:23:01;5.28;;;2.70;;
48767;SDS011;34933;40.968;14.538;2022-09-03T03:25:48;4.50;;;3.05;;
48767;SDS011;34933;40.968;14.538;2022-09-03T03:28:33;3.33;;;2.72;;
48767;SDS011;34933;40.968;14.538;2022-09-03T03:31:18;3.28;;;2.53;;
48767;SDS011;34933;40.968;14.538;2022-09-03T03:34:04;4.20;;;2.50;;
48767;SDS011;34933;40.968;14.538;2022-09-03T03:36:49;3.30;;;2.60;;
48767;SDS011;34933;40.968;14.538;2022-09-03T03:39:33;2.78;;;2.53;;
48767;SDS011;34933;40.968;14.538;2022-09-03T03:42:18;3.65;;;2.83;;
48767;SDS011;34933;40.968;14.538;2022-09-03T03:45:03;3.45;;;2.90;;
48767;SDS011;34933;40.968;14.538;2022-09-03T03:47:49;3.30;;;2.97;;
48767;SDS011;34933;40.968;14.538;2022-09-03T03:50:34;3.83;;;3.08;;
48767;SDS011;34933;40.968;14.538;2022-09-03T03:53:20;3.30;;;2.90;;
48767;SDS011;34933;40.968;14.538;2022-09-03T03:56:06;4.65;;;3.17;;
48767;SDS011;34933;40.968;14.538;2022-09-03T03:58:52;3.05;;;2.70;;
48767;SDS011;34933;40.968;14.538;2022-09-03T04:01:37;9.00;;;3.50;;
48767;SDS011;34933;40.968;14.538;2022-09-03T04:04:22;2.97;;;2.70;;
48767;SDS011;34933;40.968;14.538;2022-09-03T04:07:06;3.65;;;2.85;;
48767;SDS011;34933;40.968;14.538;2022-09-03T04:09:51;3.83;;;3.10;;
48767;SDS011;34933;40.968;14.538;2022-09-03T04:12:36;5.45;;;2.80;;
48767;SDS011;34933;40.968;14.538;2022-09-03T04:15:20;5.55;;;2.92;;
48767;SDS011;34933;40.968;14.538;2022-09-03T04:18:05;4.35;;;2.58;;
48767;SDS011;34933;40.968;14.538;2022-09-03T04:20:49;3.13;;;2.63;;
48767;SDS011;34933;40.968;14.538;2022-09-03T04:23:35;2.97;;;2.50;;
48767;SDS011;34933;40.968;14.538;2022-09-03T04:26:25;6.72;;;3.22;;
48767;SDS011;34933;40.968;14.538;2022-09-03T04:29:15;5.35;;;3.08;;
48767;SDS011;34933;40.968;14.538;2022-09-03T04:32:01;5.85;;;2.85;;
48767;SDS011;34933;40.968;14.538;2022-09-03T04:35:04;4.75;;;2.58;;
48767;SDS011;34933;40.968;14.538;2022-09-03T04:37:49;4.35;;;3.00;;
48767;SDS011;34933;40.968;14.538;2022-09-03T04:40:34;6.22;;;3.92;;
48767;SDS011;34933;40.968;14.538;2022-09-03T04:43:19;4.57;;;2.72;;
48767;SDS011;34933;40.968;14.538;2022-09-03T04:46:04;3.40;;;2.63;;
48767;SDS011;34933;40.968;14.538;2022-09-03T04:48:51;8.77;;;2.90;;
48767;SDS011;34933;40.968;14.538;2022-09-03T04:51:36;7.90;;;3.10;;
48767;SDS011;34933;40.968;14.538;2022-09-03T04:54:21;3.75;;;2.65;;
48767;SDS011;34933;40.968;14.538;2022-09-03T04:57:05;10.75;;;3.20;;
48767;SDS011;34933;40.968;14.538;2022-09-03T04:59:51;4.45;;;2.63;;
48767;SDS011;34933;40.968;14.538;2022-09-03T05:02:35;7.47;;;2.95;;
48767;SDS011;34933;40.968;14.538;2022-09-03T05:05:20;4.53;;;2.50;;
48767;SDS011;34933;40.968;14.538;2022-09-03T05:08:04;2.70;;;2.33;;
48767;SDS011;34933;40.968;14.538;2022-09-03T05:10:49;3.83;;;2.55;;
48767;SDS011;34933;40.968;14.538;2022-09-03T05:13:45;6.93;;;2.67;;
48767;SDS011;34933;40.968;14.538;2022-09-03T05:16:31;5.25;;;2.88;;
48767;SDS011;34933;40.968;14.538;2022-09-03T05:19:16;5.68;;;2.25;;
48767;SDS011;34933;40.968;14.538;2022-09-03T05:22:00;2.83;;;2.60;;
48767;SDS011;34933;40.968;14.538;2022-09-03T05:24:45;4.65;;;3.35;;
48767;SDS011;34933;40.968;14.538;2022-09-03T05:27:31;3.17;;;2.50;;
48767;SDS011;34933;40.968;14.538;2022-09-03T05:30:16;3.20;;;2.67;;
48767;SDS011;34933;40.968;14.538;2022-09-03T05:33:01;2.35;;;2.00;;
48767;SDS011;34933;40.968;14.538;2022-09-03T05:35:47;3.10;;;2.30;;
48767;SDS011;34933;40.968;14.538;2022-09-03T05:38:31;5.00;;;2.40;;
48767;SDS011;34933;40.968;14.538;2022-09-03T05:41:17;3.65;;;2.80;;
48767;SDS011;34933;40.968;14.538;2022-09-03T05:44:02;4.45;;;2.42;;
48767;SDS011;34933;40.968;14.538;2022-09-03T05:46:46;4.05;;;2.42;;
48767;SDS011;34933;40.968;14.538;2022-09-03T05:49:31;7.90;;;2.10;;
48767;SDS011;34933;40.968;14.538;2022-09-03T05:52:15;7.85;;;2.50;;
48767;SDS011;34933;40.968;14.538;2022-09-03T05:55:02;4.68;;;2.42;;
48767;SDS011;34933;40.968;14.538;2022-09-03T05:57:51;3.88;;;2.60;;
48767;SDS011;34933;40.968;14.538;2022-09-03T06:00:35;4.13;;;2.30;;
48767;SDS011;34933;40.968;14.538;2022-09-03T06:03:20;5.18;;;2.08;;
48767;SDS011;34933;40.968;14.538;2022-09-03T06:06:05;7.35;;;2.72;;
48767;SDS011;34933;40.968;14.538;2022-09-03T06:08:51;7.43;;;2.78;;
48767;SDS011;34933;40.968;14.538;2022-09-03T06:11:41;4.93;;;2.30;;
48767;SDS011;34933;40.968;14.538;2022-09-03T06:14:26;7.95;;;1.92;;
48767;SDS011;34933;40.968;14.538;2022-09-03T06:17:10;3.47;;;2.45;;
48767;SDS011;34933;40.968;14.538;2022-09-03T06:19:55;6.20;;;2.03;;
48767;SDS011;34933;40.968;14.538;2022-09-03T06:22:40;7.72;;;2.70;;
48767;SDS011;34933;40.968;14.538;2022-09-03T06:25:24;4.70;;;3.22;;
48767;SDS011;34933;40.968;14.538;2022-09-03T06:28:09;2.63;;;2.30;;
48767;SDS011;34933;40.968;14.538;2022-09-03T06:30:56;4.57;;;2.50;;
48767;SDS011;34933;40.968;14.538;2022-09-03T06:33:42;7.53;;;4.28;;
48767;SDS011;34933;40.968;14.538;2022-09-03T06:36:26;3.88;;;2.35;;
48767;SDS011;34933;40.968;14.538;2022-09-03T06:39:11;4.82;;;3.03;;
48767;SDS011;34933;40.968;14.538;2022-09-03T06:41:56;5.78;;;3.10;;
48767;SDS011;34933;40.968;14.538;2022-09-03T06:44:51;4.32;;;3.80;;
48767;SDS011;34933;40.968;14.538;2022-09-03T06:47:36;7.78;;;3.85;;
48767;SDS011;34933;40.968;14.538;2022-09-03T06:50:21;8.50;;;4.30;;
48767;SDS011;34933;40.968;14.538;2022-09-03T06:53:06;14.27;;;4.97;;
48767;SDS011;34933;40.968;14.538;2022-09-03T06:55:54;6.55;;;3.13;;
48767;SDS011;34933;40.968;14.538;2022-09-03T06:58:41;6.03;;;3.42;;
48767;SDS011;34933;40.968;14.538;2022-09-03T07:01:28;7.82;;;2.60;;
48767;SDS011;34933;40.968;14.538;2022-09-03T07:04:14;5.18;;;4.43;;
48767;SDS011;34933;40.968;14.538;2022-09-03T07:06:59;3.15;;;2.00;;
48767;SDS011;34933;40.968;14.538;2022-09-03T07:09:43;7.53;;;3.17;;
48767;SDS011;34933;40.968;14.538;2022-09-03T07:12:28;6.72;;;2.70;;
48767;SDS011;34933;40.968;14.538;2022-09-03T07:15:13;5.57;;;4.20;;
48767;SDS011;34933;40.968;14.538;2022-09-03T07:17:57;12.93;;;6.82;;
48767;SDS011;34933;40.968;14.538;2022-09-03T07:20:43;10.50;;;6.72;;
48767;SDS011;34933;40.968;14.538;2022-09-03T07:23:28;14.70;;;8.35;;
48767;SDS011;34933;40.968;14.538;2022-09-03T07:26:14;4.82;;;2.25;;
48767;SDS011;34933;40.968;14.538;2022-09-03T07:29:00;6.30;;;2.67;;
48767;SDS011;34933;40.968;14.538;2022-09-03T07:31:45;4.75;;;2.70;;
48767;SDS011;34933;40.968;14.538;2022-09-03T07:34:30;2.75;;;2.00;;
48767;SDS011;34933;40.968;14.538;2022-09-03T07:37:14;6.63;;;2.47;;
48767;SDS011;34933;40.968;14.538;2022-09-03T07:40:01;4.00;;;2.72;;
48767;SDS011;34933;40.968;14.538;2022-09-03T07:42:46;6.10;;;1.60;;
48767;SDS011;34933;40.968;14.538;2022-09-03T07:45:30;2.13;;;1.73;;
48767;SDS011;34933;40.968;14.538;2022-09-03T07:48:16;4.88;;;1.60;;
48767;SDS011;34933;40.968;14.538;2022-09-03T07:51:01;2.80;;;1.70;;
48767;SDS011;34933;40.968;14.538;2022-09-03T07:53:46;2.80;;;1.63;;
48767;SDS011;34933;40.968;14.538;2022-09-03T07:56:32;3.17;;;1.55;;
48767;SDS011;34933;40.968;14.538;2022-09-03T07:59:18;2.65;;;1.77;;
48767;SDS011;34933;40.968;14.538;2022-09-03T08:02:05;3.88;;;1.90;;
48767;SDS011;34933;40.968;14.538;2022-09-03T08:04:50;2.60;;;1.55;;
48767;SDS011;34933;40.968;14.538;2022-09-03T08:07:34;4.63;;;1.73;;
48767;SDS011;34933;40.968;14.538;2022-09-03T08:10:19;3.60;;;1.80;;
48767;SDS011;34933;40.968;14.538;2022-09-03T08:13:05;54.30;;;6.22;;
48767;SDS011;34933;40.968;14.538;2022-09-03T08:15:54;1.90;;;1.80;;
48767;SDS011;34933;40.968;14.538;2022-09-03T08:18:39;4.00;;;2.47;;
48767;SDS011;34933;40.968;14.538;2022-09-03T08:21:24;4.80;;;3.67;;
48767;SDS011;34933;40.968;14.538;2022-09-03T08:24:10;7.28;;;3.78;;
48767;SDS011;34933;40.968;14.538;2022-09-03T08:26:55;6.30;;;3.83;;
48767;SDS011;34933;40.968;14.538;2022-09-03T08:29:40;6.05;;;3.05;;
48767;SDS011;34933;40.968;14.538;2022-09-03T08:32:24;2.90;;;2.13;;
48767;SDS011;34933;40.968;14.538;2022-09-03T08:35:09;3.70;;;2.20;;
48767;SDS011;34933;40.968;14.538;2022-09-03T08:37:53;5.45;;;2.90;;
48767;SDS011;34933;40.968;14.538;2022-09-03T08:40:38;4.63;;;2.85;;
48767;SDS011;34933;40.968;14.538;2022-09-03T08:43:23;8.73;;;2.75;;
48767;SDS011;34933;40.968;14.538;2022-09-03T08:46:07;5.40;;;2.25;;
48767;SDS011;34933;40.968;14.538;2022-09-03T08:48:53;4.32;;;3.03;;
48767;SDS011;34933;40.968;14.538;2022-09-03T08:51:38;5.57;;;3.30;;
48767;SDS011;34933;40.968;14.538;2022-09-03T08:54:25;5.53;;;2.70;;
48767;SDS011;34933;40.968;14.538;2022-09-03T08:57:12;227.93;;;16.13;;
48767;SDS011;34933;40.968;14.538;2022-09-03T08:59:59;8.05;;;2.95;;
48767;SDS011;34933;40.968;14.538;2022-09-03T09:02:50;6.30;;;3.30;;
48767;SDS011;34933;40.968;14.538;2022-09-03T09:05:44;4.68;;;3.38;;
48767;SDS011;34933;40.968;14.538;2022-09-03T09:11:42;7.63;;;2.90;;
48767;SDS011;34933;40.968;14.538;2022-09-03T09:14:43;11.00;;;3.15;;
48767;SDS011;34933;40.968;14.538;2022-09-03T09:20:43;7.43;;;3.33;;
48767;SDS011;34933;40.968;14.538;2022-09-03T09:23:47;7.00;;;3.97;;
48767;SDS011;34933;40.968;14.538;2022-09-03T09:26:33;3.00;;;2.28;;
48767;SDS011;34933;40.968;14.538;2022-09-03T09:29:18;4.25;;;1.80;;
48767;SDS011;34933;40.968;14.538;2022-09-03T09:32:02;2.40;;;2.20;;
48767;SDS011;34933;40.968;14.538;2022-09-03T09:34:50;3.78;;;2.38;;
48767;SDS011;34933;40.968;14.538;2022-09-03T09:37:45;6.63;;;3.13;;
48767;SDS011;34933;40.968;14.538;2022-09-03T09:40:38;7.47;;;2.55;;
48767;SDS011;34933;40.968;14.538;2022-09-03T09:43:25;3.15;;;2.35;;
48767;SDS011;34933;40.968;14.538;2022-09-03T09:46:14;2.83;;;2.28;;
48767;SDS011;34933;40.968;14.538;2022-09-03T09:49:06;2.33;;;1.95;;
48767;SDS011;34933;40.968;14.538;2022-09-03T09:52:09;3.05;;;2.20;;
48767;SDS011;34933;40.968;14.538;2022-09-03T09:55:08;4.40;;;1.85;;
48767;SDS011;34933;40.968;14.538;2022-09-03T09:58:08;5.65;;;2.00;;
48767;SDS011;34933;40.968;14.538;2022-09-03T10:04:23;2.03;;;1.90;;
48767;SDS011;34933;40.968;14.538;2022-09-03T10:07:19;3.42;;;2.67;;
48767;SDS011;34933;40.968;14.538;2022-09-03T10:10:15;3.70;;;2.67;;
48767;SDS011;34933;40.968;14.538;2022-09-03T10:13:06;4.60;;;2.20;;
48767;SDS011;34933;40.968;14.538;2022-09-03T10:19:02;7.82;;;2.45;;
48767;SDS011;34933;40.968;14.538;2022-09-03T10:21:57;6.50;;;2.55;;
48767;SDS011;34933;40.968;14.538;2022-09-03T10:24:57;4.43;;;2.45;;
48767;SDS011;34933;40.968;14.538;2022-09-03T10:27:45;3.75;;;2.55;;
48767;SDS011;34933;40.968;14.538;2022-09-03T10:30:29;4.82;;;2.90;;
48767;SDS011;34933;40.968;14.538;2022-09-03T10:33:30;5.78;;;2.65;;
48767;SDS011;34933;40.968;14.538;2022-09-03T10:36:23;3.72;;;2.50;;
48767;SDS011;34933;40.968;14.538;2022-09-03T10:39:18;6.22;;;2.92;;
48767;SDS011;34933;40.968;14.538;2022-09-03T10:59:58;5.18;;;3.03;;
48767;SDS011;34933;40.968;14.538;2022-09-03T11:06:28;5.53;;;2.70;;
48767;SDS011;34933;40.968;14.538;2022-09-03T11:09:19;4.22;;;3.03;;
48767;SDS011;34933;40.968;14.538;2022-09-03T11:12:10;2.72;;;2.50;;
48767;SDS011;34933;40.968;14.538;2022-09-03T11:15:06;5.22;;;2.78;;
48767;SDS011;34933;40.968;14.538;2022-09-03T11:18:01;3.97;;;2.97;;
48767;SDS011;34933;40.968;14.538;2022-09-03T11:20:56;5.43;;;3.35;;
48767;SDS011;34933;40.968;14.538;2022-09-03T11:23:46;6.93;;;2.70;;
48767;SDS011;34933;40.968;14.538;2022-09-03T11:26:35;3.85;;;2.65;;
48767;SDS011;34933;40.968;14.538;2022-09-03T11:30:07;4.05;;;2.40;;
48767;SDS011;34933;40.968;14.538;2022-09-03T11:35:27;4.93;;;2.67;;
48767;SDS011;34933;40.968;14.538;2022-09-03T11:38:20;3.70;;;2.60;;
48767;SDS011;34933;40.968;14.538;2022-09-03T11:41:22;4.07;;;3.05;;
48767;SDS011;34933;40.968;14.538;2022-09-03T11:44:19;3.20;;;2.70;;
48767;SDS011;34933;40.968;14.538;2022-09-03T11:50:24;7.25;;;2.70;;
48767;SDS011;34933;40.968;14.538;2022-09-03T11:59:00;10.50;;;3.17;;
48767;SDS011;34933;40.968;14.538;2022-09-03T12:01:55;3.13;;;2.50;;
48767;SDS011;34933;40.968;14.538;2022-09-03T12:11:10;5.38;;;2.95;;
48767;SDS011;34933;40.968;14.538;2022-09-03T12:20:10;4.50;;;2.60;;
48767;SDS011;34933;40.968;14.538;2022-09-03T12:22:57;2.70;;;2.50;;
48767;SDS011;34933;40.968;14.538;2022-09-03T12:25:45;3.78;;;2.47;;
48767;SDS011;34933;40.968;14.538;2022-09-03T12:28:30;8.40;;;2.58;;
48767;SDS011;34933;40.968;14.538;2022-09-03T12:31:20;3.42;;;2.88;;
48767;SDS011;34933;40.968;14.538;2022-09-03T12:34:14;6.60;;;2.20;;
48767;SDS011;34933;40.968;14.538;2022-09-03T12:36:59;3.30;;;2.47;;
48767;SDS011;34933;40.968;14.538;2022-09-03T12:39:49;6.50;;;2.65;;
48767;SDS011;34933;40.968;14.538;2022-09-03T12:42:34;2.63;;;2.40;;
48767;SDS011;34933;40.968;14.538;2022-09-03T12:45:21;4.55;;;2.33;;
48767;SDS011;34933;40.968;14.538;2022-09-03T12:48:11;4.10;;;3.17;;
48767;SDS011;34933;40.968;14.538;2022-09-03T12:51:00;3.38;;;2.38;;
48767;SDS011;34933;40.968;14.538;2022-09-03T12:53:46;3.28;;;2.45;;
48767;SDS011;34933;40.968;14.538;2022-09-03T12:56:34;2.50;;;2.30;;
48767;SDS011;34933;40.968;14.538;2022-09-03T12:59:21;5.15;;;2.22;;
48767;SDS011;34933;40.968;14.538;2022-09-03T13:02:17;3.47;;;2.40;;
48767;SDS011;34933;40.968;14.538;2022-09-03T13:05:17;3.63;;;2.42;;
48767;SDS011;34933;40.968;14.538;2022-09-03T13:08:05;3.75;;;2.17;;
48767;SDS011;34933;40.968;14.538;2022-09-03T13:10:54;4.07;;;2.78;;
48767;SDS011;34933;40.968;14.538;2022-09-03T13:13:47;5.10;;;2.30;;
48767;SDS011;34933;40.968;14.538;2022-09-03T13:22:44;4.93;;;2.88;;
48767;SDS011;34933;40.968;14.538;2022-09-03T13:25:56;5.95;;;2.88;;
48767;SDS011;34933;40.968;14.538;2022-09-03T13:28:53;2.47;;;1.73;;
48767;SDS011;34933;40.968;14.538;2022-09-03T13:32:07;1.60;;;1.50;;
48767;SDS011;34933;40.968;14.538;2022-09-03T13:35:18;4.18;;;1.73;;
48767;SDS011;34933;40.968;14.538;2022-09-03T13:44:41;2.45;;;1.92;;
48767;SDS011;34933;40.968;14.538;2022-09-03T13:47:56;3.22;;;1.80;;
48767;SDS011;34933;40.968;14.538;2022-09-03T13:51:15;4.78;;;2.80;;
48767;SDS011;34933;40.968;14.538;2022-09-03T13:54:14;5.30;;;2.00;;
48767;SDS011;34933;40.968;14.538;2022-09-03T14:03:49;6.57;;;3.65;;
48767;SDS011;34933;40.968;14.538;2022-09-03T14:06:41;8.02;;;6.20;;
48767;SDS011;34933;40.968;14.538;2022-09-03T14:12:48;2.17;;;1.35;;
48767;SDS011;34933;40.968;14.538;2022-09-03T14:15:42;2.53;;;1.30;;
48767;SDS011;34933;40.968;14.538;2022-09-03T14:25:08;2.63;;;1.50;;
48767;SDS011;34933;40.968;14.538;2022-09-03T14:38:18;3.33;;;1.75;;
48767;SDS011;34933;40.968;14.538;2022-09-03T14:40:44;2.42;;;1.60;;
48767;SDS011;34933;40.968;14.538;2022-09-03T15:13:41;11.30;;;2.60;;
48767;SDS011;34933;40.968;14.538;2022-09-03T15:16:37;2.30;;;1.65;;
48767;SDS011;34933;40.968;14.538;2022-09-03T15:22:35;2.75;;;1.40;;
48767;SDS011;34933;40.968;14.538;2022-09-03T15:28:59;2.55;;;1.60;;
48767;SDS011;34933;40.968;14.538;2022-09-03T15:44:18;3.10;;;1.63;;
48767;SDS011;34933;40.968;14.538;2022-09-03T15:47:13;2.95;;;1.40;;
48767;SDS011;34933;40.968;14.538;2022-09-03T15:50:15;4.70;;;1.95;;
48767;SDS011;34933;40.968;14.538;2022-09-03T15:59:37;11.45;;;9.75;;
48767;SDS011;34933;40.968;14.538;2022-09-03T16:05:40;10.88;;;5.22;;
48767;SDS011;34933;40.968;14.538;2022-09-03T16:08:45;5.47;;;4.95;;
48767;SDS011;34933;40.968;14.538;2022-09-03T16:11:51;4.60;;;3.10;;
48767;SDS011;34933;40.968;14.538;2022-09-03T16:18:03;7.95;;;3.70;;
48767;SDS011;34933;40.968;14.538;2022-09-03T16:21:11;8.43;;;6.97;;
48767;SDS011;34933;40.968;14.538;2022-09-03T16:24:08;14.50;;;11.32;;
48767;SDS011;34933;40.968;14.538;2022-09-03T16:27:35;3.35;;;2.35;;
48767;SDS011;34933;40.968;14.538;2022-09-03T16:30:20;4.00;;;3.30;;
48767;SDS011;34933;40.968;14.538;2022-09-03T16:52:04;6.35;;;2.10;;
48767;SDS011;34933;40.968;14.538;2022-09-03T17:00:39;20.27;;;11.35;;
48767;SDS011;34933;40.968;14.538;2022-09-03T17:13:14;10.90;;;5.68;;
48767;SDS011;34933;40.968;14.538;2022-09-03T17:25:23;8.95;;;5.75;;
48767;SDS011;34933;40.968;14.538;2022-09-03T17:47:30;17.90;;;11.40;;
48767;SDS011;34933;40.968;14.538;2022-09-03T17:56:59;19.73;;;9.90;;
48767;SDS011;34933;40.968;14.538;2022-09-03T18:02:55;21.48;;;9.48;;
48767;SDS011;34933;40.968;14.538;2022-09-03T18:05:50;18.58;;;9.90;;
48767;SDS011;34933;40.968;14.538;2022-09-03T18:11:30;13.25;;;8.00;;
48767;SDS011;34933;40.968;14.538;2022-09-03T18:14:29;13.98;;;7.82;;
48767;SDS011;34933;40.968;14.538;2022-09-03T18:17:26;16.00;;;8.13;;
48767;SDS011;34933;40.968;14.538;2022-09-03T18:20:16;15.50;;;7.72;;
48767;SDS011;34933;40.968;14.538;2022-09-03T18:23:20;14.73;;;7.53;;
48767;SDS011;34933;40.968;14.538;2022-09-03T18:26:32;16.35;;;8.25;;
48767;SDS011;34933;40.968;14.538;2022-09-03T18:32:44;20.23;;;8.85;;
48767;SDS011;34933;40.968;14.538;2022-09-03T18:35:48;14.18;;;8.75;;
48767;SDS011;34933;40.968;14.538;2022-09-03T18:38:55;17.63;;;9.10;;
48767;SDS011;34933;40.968;14.538;2022-09-03T18:45:34;21.17;;;11.05;;
48767;SDS011;34933;40.968;14.538;2022-09-03T18:49:02;16.88;;;9.55;;
48767;SDS011;34933;40.968;14.538;2022-09-03T18:52:21;22.40;;;10.02;;
48767;SDS011;34933;40.968;14.538;2022-09-03T18:55:45;14.55;;;8.63;;
48767;SDS011;34933;40.968;14.538;2022-09-03T19:02:45;19.77;;;9.23;;
48767;SDS011;34933;40.968;14.538;2022-09-03T19:09:06;23.08;;;10.10;;
48767;SDS011;34933;40.968;14.538;2022-09-03T19:15:50;29.17;;;11.43;;
48767;SDS011;34933;40.968;14.538;2022-09-03T19:22:36;24.35;;;10.90;;
48767;SDS011;34933;40.968;14.538;2022-09-03T19:25:41;20.10;;;10.87;;
48767;SDS011;34933;40.968;14.538;2022-09-03T19:28:45;18.45;;;9.32;;
48767;SDS011;34933;40.968;14.538;2022-09-03T19:32:02;17.92;;;8.18;;
48767;SDS011;34933;40.968;14.538;2022-09-03T19:35:16;11.65;;;7.40;;
48767;SDS011;34933;40.968;14.538;2022-09-03T19:55:44;22.75;;;11.20;;
48767;SDS011;34933;40.968;14.538;2022-09-03T19:58:59;18.40;;;8.80;;
48767;SDS011;34933;40.968;14.538;2022-09-03T20:02:11;15.25;;;8.98;;
48767;SDS011;34933;40.968;14.538;2022-09-03T20:05:18;15.65;;;8.45;;
48767;SDS011;34933;40.968;14.538;2022-09-03T20:08:23;14.55;;;7.55;;
48767;SDS011;34933;40.968;14.538;2022-09-03T20:11:27;10.93;;;7.10;;
48767;SDS011;34933;40.968;14.538;2022-09-03T20:14:14;8.25;;;5.57;;
48767;SDS011;34933;40.968;14.538;2022-09-03T20:23:05;13.32;;;6.57;;
48767;SDS011;34933;40.968;14.538;2022-09-03T20:29:38;17.42;;;9.75;;
48767;SDS011;34933;40.968;14.538;2022-09-03T20:48:03;11.48;;;7.70;;
48767;SDS011;34933;40.968;14.538;2022-09-03T20:51:19;11.02;;;7.20;;
48767;SDS011;34933;40.968;14.538;2022-09-03T20:54:19;11.77;;;7.07;;
48767;SDS011;34933;40.968;14.538;2022-09-03T21:09:18;13.60;;;6.10;;
48767;SDS011;34933;40.968;14.538;2022-09-03T21:12:09;9.80;;;6.32;;
48767;SDS011;34933;40.968;14.538;2022-09-03T21:18:42;10.43;;;4.50;;
48767;SDS011;34933;40.968;14.538;2022-09-03T21:24:33;5.85;;;4.43;;
48767;SDS011;34933;40.968;14.538;2022-09-03T21:27:27;9.55;;;4.30;;
48767;SDS011;34933;40.968;14.538;2022-09-03T21:30:35;8.60;;;3.53;;
48767;SDS011;34933;40.968;14.538;2022-09-03T21:33:26;7.13;;;3.88;;
48767;SDS011;34933;40.968;14.538;2022-09-03T21:36:27;8.73;;;3.70;;
48767;SDS011;34933;40.968;14.538;2022-09-03T21:39:18;6.03;;;3.40;;
48767;SDS011;34933;40.968;14.538;2022-09-03T21:42:35;6.28;;;3.58;;
48767;SDS011;34933;40.968;14.538;2022-09-03T21:51:30;4.53;;;3.45;;
48767;SDS011;34933;40.968;14.538;2022-09-03T21:54:28;14.50;;;7.78;;
48767;SDS011;34933;40.968;14.538;2022-09-03T21:57:18;8.90;;;3.22;;
48767;SDS011;34933;40.968;14.538;2022-09-03T22:00:33;8.27;;;5.13;;
48767;SDS011;34933;40.968;14.538;2022-09-03T22:03:18;8.50;;;3.20;;
48767;SDS011;34933;40.968;14.538;2022-09-03T22:06:15;5.85;;;3.55;;
48767;SDS011;34933;40.968;14.538;2022-09-03T22:09:32;9.38;;;3.45;;
48767;SDS011;34933;40.968;14.538;2022-09-03T22:15:30;5.20;;;2.63;;
48767;SDS011;34933;40.968;14.538;2022-09-03T22:18:20;4.88;;;2.75;;
48767;SDS011;34933;40.968;14.538;2022-09-03T22:21:16;4.30;;;2.70;;
48767;SDS011;34933;40.968;14.538;2022-09-03T22:33:47;6.40;;;2.75;;
48767;SDS011;34933;40.968;14.538;2022-09-03T22:36:44;4.57;;;2.60;;
48767;SDS011;34933;40.968;14.538;2022-09-03T22:39:37;9.05;;;3.28;;
48767;SDS011;34933;40.968;14.538;2022-09-03T22:42:31;5.05;;;2.60;;
48767;SDS011;34933;40.968;14.538;2022-09-03T22:45:38;3.47;;;2.45;;
48767;SDS011;34933;40.968;14.538;2022-09-03T22:48:44;4.47;;;2.58;;
48767;SDS011;34933;40.968;14.538;2022-09-03T22:55:10;5.07;;;2.67;;
48767;SDS011;34933;40.968;14.538;2022-09-03T22:58:08;4.43;;;2.70;;
48767;SDS011;34933;40.968;14.538;2022-09-03T23:01:08;7.55;;;2.53;;
48767;SDS011;34933;40.968;14.538;2022-09-03T23:04:16;2.95;;;2.28;;
48767;SDS011;34933;40.968;14.538;2022-09-03T23:10:03;4.00;;;2.38;;
48767;SDS011;34933;40.968;14.538;2022-09-03T23:12:58;4.40;;;2.40;;
48767;SDS011;34933;40.968;14.538;2022-09-03T23:15:57;2.47;;;1.60;;
48767;SDS011;34933;40.968;14.538;2022-09-03T23:18:47;5.55;;;2.60;;